<?xml version="1.0" encoding="UTF-8" standalone="no" ?>
<gpx xmlns="http://www.topografix.com/GPX/1/1" xmlns:xsi="http://www.w3.org/2001/XMLSchema-instance" xsi:schemaLocation="http://www.topografix.com/GPX/1/1 http://www.topografix.com/GPX/1/1/gpx.xsd" version="1.1" creator="VisuGPX - https://www.visugpx.com">
  <metadata>
    <name>GrandAuverne_PetiteHaie_20km</name>
    <desc><![CDATA[gnerando idor:9686098]]></desc>
  </metadata>
  <trk>
    <name><![CDATA[GrandAuverne_PetiteHaie_20km_1]]></name>
    <trkseg>
      <trkpt lat="48.23216" lon="-3.04055">
        <ele>237.4</ele>
      </trkpt>
      <trkpt lat="48.23216" lon="-3.04055">
        <ele>237.4</ele>
      </trkpt>
    </trkseg>
  </trk>
  <trk>
    <name><![CDATA[GrdAuverne_PetiteHaie_19.9km-9686098]]></name>
    <extensions>
      <line xmlns="http://www.topografix.com/GPX/gpx_style/0/2">
        <color>00FF00</color>
        <width>4</width>
      </line>
    </extensions>
    <trkseg>
      <trkpt lat="47.59157" lon="-1.32978">
        <ele>65</ele>
        <time>2023-11-09T18:00:02Z</time>
      </trkpt>
      <trkpt lat="47.59137" lon="-1.33028">
        <ele>65</ele>
        <time>2023-11-09T18:00:54Z</time>
      </trkpt>
      <trkpt lat="47.59138" lon="-1.33059">
        <ele>65</ele>
        <time>2023-11-09T18:01:22Z</time>
      </trkpt>
      <trkpt lat="47.59113" lon="-1.33105">
        <ele>65</ele>
        <time>2023-11-09T18:02:15Z</time>
      </trkpt>
      <trkpt lat="47.59102" lon="-1.33135">
        <ele>65</ele>
        <time>2023-11-09T18:02:46Z</time>
      </trkpt>
      <trkpt lat="47.59091" lon="-1.33194">
        <ele>64</ele>
        <time>2023-11-09T18:03:41Z</time>
      </trkpt>
      <trkpt lat="47.59078" lon="-1.33215">
        <ele>64</ele>
        <time>2023-11-09T18:04:07Z</time>
      </trkpt>
      <trkpt lat="47.59056" lon="-1.3323">
        <ele>63</ele>
        <time>2023-11-09T18:04:39Z</time>
      </trkpt>
      <trkpt lat="47.59037" lon="-1.33247">
        <ele>63</ele>
        <time>2023-11-09T18:05:09Z</time>
      </trkpt>
      <trkpt lat="47.59023" lon="-1.33264">
        <ele>62</ele>
        <time>2023-11-09T18:05:33Z</time>
      </trkpt>
      <trkpt lat="47.59003" lon="-1.33321">
        <ele>60</ele>
        <time>2023-11-09T18:06:31Z</time>
      </trkpt>
      <trkpt lat="47.58986" lon="-1.33345">
        <ele>61</ele>
        <time>2023-11-09T18:07:02Z</time>
      </trkpt>
      <trkpt lat="47.58771" lon="-1.33495">
        <ele>66</ele>
        <time>2023-11-09T18:12:19Z</time>
      </trkpt>
      <trkpt lat="47.58734" lon="-1.33524">
        <ele>67</ele>
        <time>2023-11-09T18:13:15Z</time>
      </trkpt>
      <trkpt lat="47.58727" lon="-1.33552">
        <ele>66</ele>
        <time>2023-11-09T18:13:42Z</time>
      </trkpt>
      <trkpt lat="47.58717" lon="-1.33523">
        <ele>67</ele>
        <time>2023-11-09T18:14:11Z</time>
      </trkpt>
      <trkpt lat="47.58696" lon="-1.33439">
        <ele>69</ele>
        <time>2023-11-09T18:15:32Z</time>
      </trkpt>
      <trkpt lat="47.58633" lon="-1.33134">
        <ele>69</ele>
        <time>2023-11-09T18:20:19Z</time>
      </trkpt>
      <trkpt lat="47.58619" lon="-1.33073">
        <ele>71</ele>
        <time>2023-11-09T18:21:17Z</time>
      </trkpt>
      <trkpt lat="47.58587" lon="-1.32954">
        <ele>72</ele>
        <time>2023-11-09T18:23:12Z</time>
      </trkpt>
      <trkpt lat="47.58598" lon="-1.32864">
        <ele>72</ele>
        <time>2023-11-09T18:24:35Z</time>
      </trkpt>
      <trkpt lat="47.58599" lon="-1.32829">
        <ele>72</ele>
        <time>2023-11-09T18:25:06Z</time>
      </trkpt>
      <trkpt lat="47.58597" lon="-1.32739">
        <ele>70</ele>
        <time>2023-11-09T18:26:27Z</time>
      </trkpt>
      <trkpt lat="47.5859" lon="-1.32711">
        <ele>70</ele>
        <time>2023-11-09T18:26:54Z</time>
      </trkpt>
      <trkpt lat="47.5857" lon="-1.32705">
        <ele>70</ele>
        <time>2023-11-09T18:27:21Z</time>
      </trkpt>
      <trkpt lat="47.58511" lon="-1.3268">
        <ele>70</ele>
        <time>2023-11-09T18:28:43Z</time>
      </trkpt>
      <trkpt lat="47.58472" lon="-1.32652">
        <ele>69</ele>
        <time>2023-11-09T18:29:41Z</time>
      </trkpt>
      <trkpt lat="47.58454" lon="-1.32643">
        <ele>68</ele>
        <time>2023-11-09T18:30:06Z</time>
      </trkpt>
      <trkpt lat="47.58409" lon="-1.32706">
        <ele>65</ele>
        <time>2023-11-09T18:31:29Z</time>
      </trkpt>
      <trkpt lat="47.5839" lon="-1.32721">
        <ele>63</ele>
        <time>2023-11-09T18:31:58Z</time>
      </trkpt>
      <trkpt lat="47.58368" lon="-1.32726">
        <ele>60</ele>
        <time>2023-11-09T18:32:27Z</time>
      </trkpt>
      <trkpt lat="47.58344" lon="-1.32727">
        <ele>57</ele>
        <time>2023-11-09T18:32:59Z</time>
      </trkpt>
      <trkpt lat="47.58323" lon="-1.32733">
        <ele>55</ele>
        <time>2023-11-09T18:33:28Z</time>
      </trkpt>
      <trkpt lat="47.58287" lon="-1.3275">
        <ele>52</ele>
        <time>2023-11-09T18:34:18Z</time>
      </trkpt>
      <trkpt lat="47.58249" lon="-1.32774">
        <ele>48</ele>
        <time>2023-11-09T18:35:14Z</time>
      </trkpt>
      <trkpt lat="47.58233" lon="-1.32788">
        <ele>47</ele>
        <time>2023-11-09T18:35:38Z</time>
      </trkpt>
      <trkpt lat="47.58214" lon="-1.32811">
        <ele>46</ele>
        <time>2023-11-09T18:36:11Z</time>
      </trkpt>
      <trkpt lat="47.58197" lon="-1.32821">
        <ele>46</ele>
        <time>2023-11-09T18:36:35Z</time>
      </trkpt>
      <trkpt lat="47.58177" lon="-1.32828">
        <ele>45</ele>
        <time>2023-11-09T18:37:03Z</time>
      </trkpt>
      <trkpt lat="47.58133" lon="-1.32821">
        <ele>46</ele>
        <time>2023-11-09T18:38:02Z</time>
      </trkpt>
      <trkpt lat="47.58031" lon="-1.32793">
        <ele>49</ele>
        <time>2023-11-09T18:40:20Z</time>
      </trkpt>
      <trkpt lat="47.58013" lon="-1.32784">
        <ele>49</ele>
        <time>2023-11-09T18:40:46Z</time>
      </trkpt>
      <trkpt lat="47.57994" lon="-1.32781">
        <ele>49</ele>
        <time>2023-11-09T18:41:11Z</time>
      </trkpt>
      <trkpt lat="47.57976" lon="-1.32773">
        <ele>49</ele>
        <time>2023-11-09T18:41:36Z</time>
      </trkpt>
      <trkpt lat="47.57912" lon="-1.32759">
        <ele>49</ele>
        <time>2023-11-09T18:43:03Z</time>
      </trkpt>
      <trkpt lat="47.57892" lon="-1.3276">
        <ele>48</ele>
        <time>2023-11-09T18:43:29Z</time>
      </trkpt>
      <trkpt lat="47.57791" lon="-1.32744">
        <ele>47</ele>
        <time>2023-11-09T18:45:45Z</time>
      </trkpt>
      <trkpt lat="47.57689" lon="-1.32711">
        <ele>47</ele>
        <time>2023-11-09T18:48:04Z</time>
      </trkpt>
      <trkpt lat="47.57667" lon="-1.32709">
        <ele>47</ele>
        <time>2023-11-09T18:48:34Z</time>
      </trkpt>
      <trkpt lat="47.57599" lon="-1.32692">
        <ele>48</ele>
        <time>2023-11-09T18:50:06Z</time>
      </trkpt>
      <trkpt lat="47.57584" lon="-1.32672">
        <ele>48</ele>
        <time>2023-11-09T18:50:33Z</time>
      </trkpt>
      <trkpt lat="47.5759" lon="-1.3264">
        <ele>48</ele>
        <time>2023-11-09T18:51:02Z</time>
      </trkpt>
      <trkpt lat="47.57591" lon="-1.3258">
        <ele>49</ele>
        <time>2023-11-09T18:51:56Z</time>
      </trkpt>
      <trkpt lat="47.57586" lon="-1.32515">
        <ele>49</ele>
        <time>2023-11-09T18:52:55Z</time>
      </trkpt>
      <trkpt lat="47.5758" lon="-1.32483">
        <ele>49</ele>
        <time>2023-11-09T18:53:25Z</time>
      </trkpt>
      <trkpt lat="47.57498" lon="-1.32219">
        <ele>50</ele>
        <time>2023-11-09T18:57:47Z</time>
      </trkpt>
      <trkpt lat="47.57491" lon="-1.32186">
        <ele>50</ele>
        <time>2023-11-09T18:58:18Z</time>
      </trkpt>
      <trkpt lat="47.57483" lon="-1.32162">
        <ele>50</ele>
        <time>2023-11-09T18:58:42Z</time>
      </trkpt>
      <trkpt lat="47.57472" lon="-1.32101">
        <ele>51</ele>
        <time>2023-11-09T18:59:39Z</time>
      </trkpt>
      <trkpt lat="47.5747" lon="-1.32067">
        <ele>51</ele>
        <time>2023-11-09T19:00:10Z</time>
      </trkpt>
      <trkpt lat="47.5746" lon="-1.32009">
        <ele>51</ele>
        <time>2023-11-09T19:01:04Z</time>
      </trkpt>
      <trkpt lat="47.57473" lon="-1.31983">
        <ele>51</ele>
        <time>2023-11-09T19:01:33Z</time>
      </trkpt>
      <trkpt lat="47.57517" lon="-1.3199">
        <ele>51</ele>
        <time>2023-11-09T19:02:32Z</time>
      </trkpt>
      <trkpt lat="47.57647" lon="-1.32023">
        <ele>50</ele>
        <time>2023-11-09T19:05:28Z</time>
      </trkpt>
      <trkpt lat="47.57664" lon="-1.32015">
        <ele>50</ele>
        <time>2023-11-09T19:05:52Z</time>
      </trkpt>
      <trkpt lat="47.5769" lon="-1.31917">
        <ele>50</ele>
        <time>2023-11-09T19:07:26Z</time>
      </trkpt>
      <trkpt lat="47.57743" lon="-1.3179">
        <ele>49</ele>
        <time>2023-11-09T19:09:41Z</time>
      </trkpt>
      <trkpt lat="47.57754" lon="-1.31761">
        <ele>49</ele>
        <time>2023-11-09T19:10:11Z</time>
      </trkpt>
      <trkpt lat="47.57762" lon="-1.31729">
        <ele>49</ele>
        <time>2023-11-09T19:10:42Z</time>
      </trkpt>
      <trkpt lat="47.57776" lon="-1.31639">
        <ele>48</ele>
        <time>2023-11-09T19:12:05Z</time>
      </trkpt>
      <trkpt lat="47.57785" lon="-1.31508">
        <ele>48</ele>
        <time>2023-11-09T19:14:03Z</time>
      </trkpt>
      <trkpt lat="47.57814" lon="-1.31286">
        <ele>48</ele>
        <time>2023-11-09T19:17:27Z</time>
      </trkpt>
      <trkpt lat="47.57814" lon="-1.31257">
        <ele>48</ele>
        <time>2023-11-09T19:17:53Z</time>
      </trkpt>
      <trkpt lat="47.57795" lon="-1.31164">
        <ele>48</ele>
        <time>2023-11-09T19:19:20Z</time>
      </trkpt>
      <trkpt lat="47.57723" lon="-1.30904">
        <ele>50</ele>
        <time>2023-11-09T19:23:33Z</time>
      </trkpt>
      <trkpt lat="47.57665" lon="-1.30706">
        <ele>51</ele>
        <time>2023-11-09T19:26:48Z</time>
      </trkpt>
      <trkpt lat="47.57633" lon="-1.30625">
        <ele>50</ele>
        <time>2023-11-09T19:28:12Z</time>
      </trkpt>
      <trkpt lat="47.57589" lon="-1.30531">
        <ele>50</ele>
        <time>2023-11-09T19:29:55Z</time>
      </trkpt>
      <trkpt lat="47.57552" lon="-1.30422">
        <ele>50</ele>
        <time>2023-11-09T19:31:45Z</time>
      </trkpt>
      <trkpt lat="47.57477" lon="-1.30233">
        <ele>54</ele>
        <time>2023-11-09T19:35:02Z</time>
      </trkpt>
      <trkpt lat="47.57349" lon="-1.29899">
        <ele>55</ele>
        <time>2023-11-09T19:40:48Z</time>
      </trkpt>
      <trkpt lat="47.57345" lon="-1.29869">
        <ele>55</ele>
        <time>2023-11-09T19:41:16Z</time>
      </trkpt>
      <trkpt lat="47.574" lon="-1.29835">
        <ele>55</ele>
        <time>2023-11-09T19:42:35Z</time>
      </trkpt>
      <trkpt lat="47.57462" lon="-1.29803">
        <ele>54</ele>
        <time>2023-11-09T19:44:03Z</time>
      </trkpt>
      <trkpt lat="47.5756" lon="-1.29748">
        <ele>54</ele>
        <time>2023-11-09T19:46:23Z</time>
      </trkpt>
      <trkpt lat="47.57615" lon="-1.29696">
        <ele>54</ele>
        <time>2023-11-09T19:47:50Z</time>
      </trkpt>
      <trkpt lat="47.57631" lon="-1.29677">
        <ele>55</ele>
        <time>2023-11-09T19:48:17Z</time>
      </trkpt>
      <trkpt lat="47.57645" lon="-1.29651">
        <ele>55</ele>
        <time>2023-11-09T19:48:47Z</time>
      </trkpt>
      <trkpt lat="47.57696" lon="-1.296">
        <ele>57</ele>
        <time>2023-11-09T19:50:09Z</time>
      </trkpt>
      <trkpt lat="47.57716" lon="-1.29585">
        <ele>57</ele>
        <time>2023-11-09T19:50:39Z</time>
      </trkpt>
      <trkpt lat="47.57748" lon="-1.29552">
        <ele>57</ele>
        <time>2023-11-09T19:51:31Z</time>
      </trkpt>
      <trkpt lat="47.57806" lon="-1.29518">
        <ele>57</ele>
        <time>2023-11-09T19:52:54Z</time>
      </trkpt>
      <trkpt lat="47.57845" lon="-1.29506">
        <ele>57</ele>
        <time>2023-11-09T19:53:48Z</time>
      </trkpt>
      <trkpt lat="47.57868" lon="-1.29504">
        <ele>57</ele>
        <time>2023-11-09T19:54:18Z</time>
      </trkpt>
      <trkpt lat="47.57884" lon="-1.29487">
        <ele>58</ele>
        <time>2023-11-09T19:54:45Z</time>
      </trkpt>
      <trkpt lat="47.57861" lon="-1.29401">
        <ele>59</ele>
        <time>2023-11-09T19:56:08Z</time>
      </trkpt>
      <trkpt lat="47.57858" lon="-1.2937">
        <ele>60</ele>
        <time>2023-11-09T19:56:36Z</time>
      </trkpt>
      <trkpt lat="47.57856" lon="-1.29307">
        <ele>60</ele>
        <time>2023-11-09T19:57:33Z</time>
      </trkpt>
      <trkpt lat="47.57858" lon="-1.29183">
        <ele>61</ele>
        <time>2023-11-09T19:59:24Z</time>
      </trkpt>
      <trkpt lat="47.57856" lon="-1.29153">
        <ele>61</ele>
        <time>2023-11-09T19:59:52Z</time>
      </trkpt>
      <trkpt lat="47.57838" lon="-1.29142">
        <ele>60</ele>
        <time>2023-11-09T20:00:18Z</time>
      </trkpt>
      <trkpt lat="47.57818" lon="-1.29134">
        <ele>60</ele>
        <time>2023-11-09T20:00:45Z</time>
      </trkpt>
      <trkpt lat="47.57778" lon="-1.29125">
        <ele>60</ele>
        <time>2023-11-09T20:01:39Z</time>
      </trkpt>
      <trkpt lat="47.57718" lon="-1.29104">
        <ele>59</ele>
        <time>2023-11-09T20:03:01Z</time>
      </trkpt>
      <trkpt lat="47.57654" lon="-1.29088">
        <ele>58</ele>
        <time>2023-11-09T20:04:28Z</time>
      </trkpt>
      <trkpt lat="47.57591" lon="-1.29068">
        <ele>57</ele>
        <time>2023-11-09T20:05:54Z</time>
      </trkpt>
      <trkpt lat="47.5757" lon="-1.29064">
        <ele>57</ele>
        <time>2023-11-09T20:06:22Z</time>
      </trkpt>
      <trkpt lat="47.57527" lon="-1.29061">
        <ele>57</ele>
        <time>2023-11-09T20:07:20Z</time>
      </trkpt>
      <trkpt lat="47.57506" lon="-1.29062">
        <ele>57</ele>
        <time>2023-11-09T20:07:48Z</time>
      </trkpt>
      <trkpt lat="47.57424" lon="-1.29054">
        <ele>59</ele>
        <time>2023-11-09T20:09:37Z</time>
      </trkpt>
      <trkpt lat="47.57317" lon="-1.2905">
        <ele>58</ele>
        <time>2023-11-09T20:12:00Z</time>
      </trkpt>
      <trkpt lat="47.57294" lon="-1.29045">
        <ele>58</ele>
        <time>2023-11-09T20:12:31Z</time>
      </trkpt>
      <trkpt lat="47.5723" lon="-1.29042">
        <ele>58</ele>
        <time>2023-11-09T20:13:57Z</time>
      </trkpt>
      <trkpt lat="47.5721" lon="-1.29039">
        <ele>59</ele>
        <time>2023-11-09T20:14:24Z</time>
      </trkpt>
      <trkpt lat="47.57173" lon="-1.29039">
        <ele>59</ele>
        <time>2023-11-09T20:15:13Z</time>
      </trkpt>
      <trkpt lat="47.57072" lon="-1.29033">
        <ele>59</ele>
        <time>2023-11-09T20:17:28Z</time>
      </trkpt>
      <trkpt lat="47.56952" lon="-1.29021">
        <ele>63</ele>
        <time>2023-11-09T20:20:08Z</time>
      </trkpt>
      <trkpt lat="47.56911" lon="-1.29019">
        <ele>65</ele>
        <time>2023-11-09T20:21:03Z</time>
      </trkpt>
      <trkpt lat="47.56869" lon="-1.29021">
        <ele>65</ele>
        <time>2023-11-09T20:21:59Z</time>
      </trkpt>
      <trkpt lat="47.56805" lon="-1.29012">
        <ele>65</ele>
        <time>2023-11-09T20:23:25Z</time>
      </trkpt>
      <trkpt lat="47.56786" lon="-1.29013">
        <ele>65</ele>
        <time>2023-11-09T20:23:50Z</time>
      </trkpt>
      <trkpt lat="47.56727" lon="-1.29025">
        <ele>65</ele>
        <time>2023-11-09T20:25:10Z</time>
      </trkpt>
      <trkpt lat="47.56708" lon="-1.29034">
        <ele>66</ele>
        <time>2023-11-09T20:25:36Z</time>
      </trkpt>
      <trkpt lat="47.56696" lon="-1.29061">
        <ele>66</ele>
        <time>2023-11-09T20:26:06Z</time>
      </trkpt>
      <trkpt lat="47.5668" lon="-1.29083">
        <ele>66</ele>
        <time>2023-11-09T20:26:35Z</time>
      </trkpt>
      <trkpt lat="47.56659" lon="-1.29095">
        <ele>66</ele>
        <time>2023-11-09T20:27:05Z</time>
      </trkpt>
      <trkpt lat="47.56615" lon="-1.2916">
        <ele>65</ele>
        <time>2023-11-09T20:28:28Z</time>
      </trkpt>
      <trkpt lat="47.56584" lon="-1.29193">
        <ele>65</ele>
        <time>2023-11-09T20:29:19Z</time>
      </trkpt>
      <trkpt lat="47.56565" lon="-1.29206">
        <ele>65</ele>
        <time>2023-11-09T20:29:46Z</time>
      </trkpt>
      <trkpt lat="47.56545" lon="-1.29216">
        <ele>66</ele>
        <time>2023-11-09T20:30:15Z</time>
      </trkpt>
      <trkpt lat="47.56525" lon="-1.29221">
        <ele>66</ele>
        <time>2023-11-09T20:30:42Z</time>
      </trkpt>
      <trkpt lat="47.5651" lon="-1.29198">
        <ele>67</ele>
        <time>2023-11-09T20:31:10Z</time>
      </trkpt>
      <trkpt lat="47.56498" lon="-1.29171">
        <ele>68</ele>
        <time>2023-11-09T20:31:40Z</time>
      </trkpt>
      <trkpt lat="47.56378" lon="-1.28943">
        <ele>76</ele>
        <time>2023-11-09T20:36:00Z</time>
      </trkpt>
      <trkpt lat="47.56361" lon="-1.28919">
        <ele>77</ele>
        <time>2023-11-09T20:36:31Z</time>
      </trkpt>
      <trkpt lat="47.56326" lon="-1.28882">
        <ele>79</ele>
        <time>2023-11-09T20:37:29Z</time>
      </trkpt>
      <trkpt lat="47.56247" lon="-1.28787">
        <ele>78</ele>
        <time>2023-11-09T20:39:44Z</time>
      </trkpt>
      <trkpt lat="47.56218" lon="-1.28744">
        <ele>78</ele>
        <time>2023-11-09T20:40:39Z</time>
      </trkpt>
      <trkpt lat="47.56192" lon="-1.28696">
        <ele>77</ele>
        <time>2023-11-09T20:41:35Z</time>
      </trkpt>
      <trkpt lat="47.56139" lon="-1.28609">
        <ele>75</ele>
        <time>2023-11-09T20:43:20Z</time>
      </trkpt>
      <trkpt lat="47.56129" lon="-1.28583">
        <ele>75</ele>
        <time>2023-11-09T20:43:47Z</time>
      </trkpt>
      <trkpt lat="47.5614" lon="-1.2861">
        <ele>75</ele>
        <time>2023-11-09T20:44:15Z</time>
      </trkpt>
      <trkpt lat="47.56155" lon="-1.28629">
        <ele>76</ele>
        <time>2023-11-09T20:44:42Z</time>
      </trkpt>
      <trkpt lat="47.56211" lon="-1.28725">
        <ele>78</ele>
        <time>2023-11-09T20:46:36Z</time>
      </trkpt>
      <trkpt lat="47.56221" lon="-1.28752">
        <ele>78</ele>
        <time>2023-11-09T20:47:04Z</time>
      </trkpt>
      <trkpt lat="47.56194" lon="-1.28795">
        <ele>75</ele>
        <time>2023-11-09T20:47:57Z</time>
      </trkpt>
      <trkpt lat="47.56179" lon="-1.28811">
        <ele>74</ele>
        <time>2023-11-09T20:48:21Z</time>
      </trkpt>
      <trkpt lat="47.56156" lon="-1.28819">
        <ele>73</ele>
        <time>2023-11-09T20:48:53Z</time>
      </trkpt>
      <trkpt lat="47.56117" lon="-1.28825">
        <ele>71</ele>
        <time>2023-11-09T20:49:45Z</time>
      </trkpt>
      <trkpt lat="47.56079" lon="-1.28836">
        <ele>70</ele>
        <time>2023-11-09T20:50:37Z</time>
      </trkpt>
      <trkpt lat="47.56016" lon="-1.28846">
        <ele>67</ele>
        <time>2023-11-09T20:52:01Z</time>
      </trkpt>
      <trkpt lat="47.55744" lon="-1.28908">
        <ele>63</ele>
        <time>2023-11-09T20:58:09Z</time>
      </trkpt>
      <trkpt lat="47.55685" lon="-1.28933">
        <ele>65</ele>
        <time>2023-11-09T20:59:31Z</time>
      </trkpt>
      <trkpt lat="47.55668" lon="-1.28944">
        <ele>65</ele>
        <time>2023-11-09T20:59:55Z</time>
      </trkpt>
      <trkpt lat="47.55592" lon="-1.28981">
        <ele>69</ele>
        <time>2023-11-09T21:01:42Z</time>
      </trkpt>
      <trkpt lat="47.55548" lon="-1.28989">
        <ele>73</ele>
        <time>2023-11-09T21:02:41Z</time>
      </trkpt>
      <trkpt lat="47.55527" lon="-1.28988">
        <ele>75</ele>
        <time>2023-11-09T21:03:09Z</time>
      </trkpt>
      <trkpt lat="47.55467" lon="-1.28998">
        <ele>80</ele>
        <time>2023-11-09T21:04:30Z</time>
      </trkpt>
      <trkpt lat="47.55446" lon="-1.28996">
        <ele>81</ele>
        <time>2023-11-09T21:04:58Z</time>
      </trkpt>
      <trkpt lat="47.55405" lon="-1.28997">
        <ele>83</ele>
        <time>2023-11-09T21:05:53Z</time>
      </trkpt>
      <trkpt lat="47.55402" lon="-1.28969">
        <ele>82</ele>
        <time>2023-11-09T21:06:18Z</time>
      </trkpt>
      <trkpt lat="47.55414" lon="-1.28883">
        <ele>79</ele>
        <time>2023-11-09T21:07:37Z</time>
      </trkpt>
      <trkpt lat="47.55421" lon="-1.28791">
        <ele>75</ele>
        <time>2023-11-09T21:09:01Z</time>
      </trkpt>
      <trkpt lat="47.55426" lon="-1.28673">
        <ele>71</ele>
        <time>2023-11-09T21:10:47Z</time>
      </trkpt>
      <trkpt lat="47.55426" lon="-1.28613">
        <ele>69</ele>
        <time>2023-11-09T21:11:41Z</time>
      </trkpt>
      <trkpt lat="47.55431" lon="-1.28555">
        <ele>68</ele>
        <time>2023-11-09T21:12:34Z</time>
      </trkpt>
      <trkpt lat="47.55447" lon="-1.28163">
        <ele>68</ele>
        <time>2023-11-09T21:18:28Z</time>
      </trkpt>
      <trkpt lat="47.55451" lon="-1.28103">
        <ele>67</ele>
        <time>2023-11-09T21:19:22Z</time>
      </trkpt>
      <trkpt lat="47.55457" lon="-1.28076">
        <ele>67</ele>
        <time>2023-11-09T21:19:47Z</time>
      </trkpt>
      <trkpt lat="47.5554" lon="-1.28058">
        <ele>66</ele>
        <time>2023-11-09T21:21:39Z</time>
      </trkpt>
      <trkpt lat="47.55601" lon="-1.2804">
        <ele>65</ele>
        <time>2023-11-09T21:23:02Z</time>
      </trkpt>
      <trkpt lat="47.5576" lon="-1.28022">
        <ele>67</ele>
        <time>2023-11-09T21:26:35Z</time>
      </trkpt>
      <trkpt lat="47.55778" lon="-1.28022">
        <ele>67</ele>
        <time>2023-11-09T21:26:59Z</time>
      </trkpt>
      <trkpt lat="47.55796" lon="-1.28018">
        <ele>68</ele>
        <time>2023-11-09T21:27:23Z</time>
      </trkpt>
      <trkpt lat="47.55816" lon="-1.28017">
        <ele>68</ele>
        <time>2023-11-09T21:27:50Z</time>
      </trkpt>
      <trkpt lat="47.55834" lon="-1.28012">
        <ele>69</ele>
        <time>2023-11-09T21:28:15Z</time>
      </trkpt>
      <trkpt lat="47.55873" lon="-1.28013">
        <ele>70</ele>
        <time>2023-11-09T21:29:07Z</time>
      </trkpt>
      <trkpt lat="47.55913" lon="-1.28008">
        <ele>71</ele>
        <time>2023-11-09T21:30:00Z</time>
      </trkpt>
      <trkpt lat="47.55931" lon="-1.28012">
        <ele>71</ele>
        <time>2023-11-09T21:30:25Z</time>
      </trkpt>
      <trkpt lat="47.55952" lon="-1.28063">
        <ele>71</ele>
        <time>2023-11-09T21:31:18Z</time>
      </trkpt>
      <trkpt lat="47.56014" lon="-1.28057">
        <ele>74</ele>
        <time>2023-11-09T21:32:41Z</time>
      </trkpt>
      <trkpt lat="47.56055" lon="-1.28048">
        <ele>75</ele>
        <time>2023-11-09T21:33:37Z</time>
      </trkpt>
      <trkpt lat="47.56076" lon="-1.28042">
        <ele>76</ele>
        <time>2023-11-09T21:34:05Z</time>
      </trkpt>
      <trkpt lat="47.56092" lon="-1.28032">
        <ele>77</ele>
        <time>2023-11-09T21:34:28Z</time>
      </trkpt>
      <trkpt lat="47.56133" lon="-1.28013">
        <ele>78</ele>
        <time>2023-11-09T21:35:26Z</time>
      </trkpt>
      <trkpt lat="47.5619" lon="-1.28019">
        <ele>80</ele>
        <time>2023-11-09T21:36:42Z</time>
      </trkpt>
      <trkpt lat="47.5625" lon="-1.28034">
        <ele>82</ele>
        <time>2023-11-09T21:38:03Z</time>
      </trkpt>
      <trkpt lat="47.56294" lon="-1.28037">
        <ele>84</ele>
        <time>2023-11-09T21:39:02Z</time>
      </trkpt>
      <trkpt lat="47.56336" lon="-1.28033">
        <ele>86</ele>
        <time>2023-11-09T21:39:58Z</time>
      </trkpt>
      <trkpt lat="47.56395" lon="-1.28033">
        <ele>87</ele>
        <time>2023-11-09T21:41:17Z</time>
      </trkpt>
      <trkpt lat="47.56452" lon="-1.28044">
        <ele>86</ele>
        <time>2023-11-09T21:42:33Z</time>
      </trkpt>
      <trkpt lat="47.5647" lon="-1.28044">
        <ele>85</ele>
        <time>2023-11-09T21:42:57Z</time>
      </trkpt>
      <trkpt lat="47.56512" lon="-1.28052">
        <ele>83</ele>
        <time>2023-11-09T21:43:54Z</time>
      </trkpt>
      <trkpt lat="47.56612" lon="-1.28056">
        <ele>80</ele>
        <time>2023-11-09T21:46:07Z</time>
      </trkpt>
      <trkpt lat="47.56635" lon="-1.28053">
        <ele>80</ele>
        <time>2023-11-09T21:46:38Z</time>
      </trkpt>
      <trkpt lat="47.56676" lon="-1.2806">
        <ele>79</ele>
        <time>2023-11-09T21:47:33Z</time>
      </trkpt>
      <trkpt lat="47.56734" lon="-1.28063">
        <ele>77</ele>
        <time>2023-11-09T21:48:51Z</time>
      </trkpt>
      <trkpt lat="47.56795" lon="-1.28082">
        <ele>76</ele>
        <time>2023-11-09T21:50:14Z</time>
      </trkpt>
      <trkpt lat="47.5687" lon="-1.28113">
        <ele>76</ele>
        <time>2023-11-09T21:51:58Z</time>
      </trkpt>
      <trkpt lat="47.5689" lon="-1.28119">
        <ele>76</ele>
        <time>2023-11-09T21:52:25Z</time>
      </trkpt>
      <trkpt lat="47.56908" lon="-1.28128">
        <ele>76</ele>
        <time>2023-11-09T21:52:50Z</time>
      </trkpt>
      <trkpt lat="47.56928" lon="-1.28134">
        <ele>76</ele>
        <time>2023-11-09T21:53:18Z</time>
      </trkpt>
      <trkpt lat="47.56968" lon="-1.28154">
        <ele>76</ele>
        <time>2023-11-09T21:54:14Z</time>
      </trkpt>
      <trkpt lat="47.5699" lon="-1.28161">
        <ele>76</ele>
        <time>2023-11-09T21:54:44Z</time>
      </trkpt>
      <trkpt lat="47.57031" lon="-1.28168">
        <ele>75</ele>
        <time>2023-11-09T21:55:39Z</time>
      </trkpt>
      <trkpt lat="47.5705" lon="-1.28175">
        <ele>74</ele>
        <time>2023-11-09T21:56:05Z</time>
      </trkpt>
      <trkpt lat="47.57103" lon="-1.28223">
        <ele>74</ele>
        <time>2023-11-09T21:57:28Z</time>
      </trkpt>
      <trkpt lat="47.57123" lon="-1.28213">
        <ele>73</ele>
        <time>2023-11-09T21:57:56Z</time>
      </trkpt>
      <trkpt lat="47.5719" lon="-1.28102">
        <ele>71</ele>
        <time>2023-11-09T22:00:10Z</time>
      </trkpt>
      <trkpt lat="47.57256" lon="-1.28033">
        <ele>72</ele>
        <time>2023-11-09T22:01:58Z</time>
      </trkpt>
      <trkpt lat="47.5727" lon="-1.28014">
        <ele>72</ele>
        <time>2023-11-09T22:02:24Z</time>
      </trkpt>
      <trkpt lat="47.57338" lon="-1.27857">
        <ele>71</ele>
        <time>2023-11-09T22:05:11Z</time>
      </trkpt>
      <trkpt lat="47.57359" lon="-1.27802">
        <ele>72</ele>
        <time>2023-11-09T22:06:08Z</time>
      </trkpt>
      <trkpt lat="47.57431" lon="-1.27643">
        <ele>74</ele>
        <time>2023-11-09T22:09:01Z</time>
      </trkpt>
      <trkpt lat="47.57447" lon="-1.2762">
        <ele>75</ele>
        <time>2023-11-09T22:09:31Z</time>
      </trkpt>
      <trkpt lat="47.57465" lon="-1.27603">
        <ele>75</ele>
        <time>2023-11-09T22:09:59Z</time>
      </trkpt>
      <trkpt lat="47.57503" lon="-1.27575">
        <ele>76</ele>
        <time>2023-11-09T22:10:56Z</time>
      </trkpt>
      <trkpt lat="47.57517" lon="-1.27556">
        <ele>76</ele>
        <time>2023-11-09T22:11:21Z</time>
      </trkpt>
      <trkpt lat="47.57527" lon="-1.27495">
        <ele>77</ele>
        <time>2023-11-09T22:12:17Z</time>
      </trkpt>
      <trkpt lat="47.57526" lon="-1.27468">
        <ele>77</ele>
        <time>2023-11-09T22:12:42Z</time>
      </trkpt>
      <trkpt lat="47.57531" lon="-1.27436">
        <ele>77</ele>
        <time>2023-11-09T22:13:11Z</time>
      </trkpt>
      <trkpt lat="47.5755" lon="-1.27439">
        <ele>77</ele>
        <time>2023-11-09T22:13:37Z</time>
      </trkpt>
      <trkpt lat="47.57558" lon="-1.27465">
        <ele>77</ele>
        <time>2023-11-09T22:14:03Z</time>
      </trkpt>
      <trkpt lat="47.5755" lon="-1.2744">
        <ele>77</ele>
        <time>2023-11-09T22:14:28Z</time>
      </trkpt>
      <trkpt lat="47.57534" lon="-1.27425">
        <ele>77</ele>
        <time>2023-11-09T22:14:53Z</time>
      </trkpt>
      <trkpt lat="47.57536" lon="-1.27397">
        <ele>77</ele>
        <time>2023-11-09T22:15:18Z</time>
      </trkpt>
      <trkpt lat="47.57557" lon="-1.27391">
        <ele>77</ele>
        <time>2023-11-09T22:15:47Z</time>
      </trkpt>
      <trkpt lat="47.57614" lon="-1.27398">
        <ele>78</ele>
        <time>2023-11-09T22:17:03Z</time>
      </trkpt>
      <trkpt lat="47.5763" lon="-1.27416">
        <ele>79</ele>
        <time>2023-11-09T22:17:30Z</time>
      </trkpt>
      <trkpt lat="47.57629" lon="-1.27448">
        <ele>79</ele>
        <time>2023-11-09T22:17:59Z</time>
      </trkpt>
      <trkpt lat="47.57634" lon="-1.27417">
        <ele>79</ele>
        <time>2023-11-09T22:18:27Z</time>
      </trkpt>
      <trkpt lat="47.57653" lon="-1.27407">
        <ele>79</ele>
        <time>2023-11-09T22:18:54Z</time>
      </trkpt>
      <trkpt lat="47.57754" lon="-1.27424">
        <ele>82</ele>
        <time>2023-11-09T22:21:10Z</time>
      </trkpt>
      <trkpt lat="47.57796" lon="-1.27426">
        <ele>84</ele>
        <time>2023-11-09T22:22:06Z</time>
      </trkpt>
      <trkpt lat="47.57836" lon="-1.27431">
        <ele>86</ele>
        <time>2023-11-09T22:23:00Z</time>
      </trkpt>
      <trkpt lat="47.57856" lon="-1.2743">
        <ele>85</ele>
        <time>2023-11-09T22:23:26Z</time>
      </trkpt>
      <trkpt lat="47.57876" lon="-1.27434">
        <ele>85</ele>
        <time>2023-11-09T22:23:53Z</time>
      </trkpt>
      <trkpt lat="47.57933" lon="-1.27434">
        <ele>84</ele>
        <time>2023-11-09T22:25:09Z</time>
      </trkpt>
      <trkpt lat="47.57949" lon="-1.27449">
        <ele>84</ele>
        <time>2023-11-09T22:25:34Z</time>
      </trkpt>
      <trkpt lat="47.57971" lon="-1.27541">
        <ele>82</ele>
        <time>2023-11-09T22:27:02Z</time>
      </trkpt>
      <trkpt lat="47.58009" lon="-1.27612">
        <ele>81</ele>
        <time>2023-11-09T22:28:24Z</time>
      </trkpt>
      <trkpt lat="47.58021" lon="-1.27641">
        <ele>80</ele>
        <time>2023-11-09T22:28:55Z</time>
      </trkpt>
      <trkpt lat="47.58049" lon="-1.2769">
        <ele>80</ele>
        <time>2023-11-09T22:29:52Z</time>
      </trkpt>
      <trkpt lat="47.5807" lon="-1.27736">
        <ele>79</ele>
        <time>2023-11-09T22:30:42Z</time>
      </trkpt>
      <trkpt lat="47.58123" lon="-1.27915">
        <ele>77</ele>
        <time>2023-11-09T22:33:38Z</time>
      </trkpt>
      <trkpt lat="47.58139" lon="-1.27979">
        <ele>75</ele>
        <time>2023-11-09T22:34:40Z</time>
      </trkpt>
      <trkpt lat="47.58175" lon="-1.28102">
        <ele>72</ele>
        <time>2023-11-09T22:36:40Z</time>
      </trkpt>
      <trkpt lat="47.58188" lon="-1.28121">
        <ele>72</ele>
        <time>2023-11-09T22:37:05Z</time>
      </trkpt>
      <trkpt lat="47.58223" lon="-1.28129">
        <ele>70</ele>
        <time>2023-11-09T22:37:52Z</time>
      </trkpt>
      <trkpt lat="47.58261" lon="-1.2812">
        <ele>68</ele>
        <time>2023-11-09T22:38:43Z</time>
      </trkpt>
      <trkpt lat="47.58279" lon="-1.28112">
        <ele>68</ele>
        <time>2023-11-09T22:39:09Z</time>
      </trkpt>
      <trkpt lat="47.58297" lon="-1.281">
        <ele>67</ele>
        <time>2023-11-09T22:39:35Z</time>
      </trkpt>
      <trkpt lat="47.58316" lon="-1.28101">
        <ele>66</ele>
        <time>2023-11-09T22:40:00Z</time>
      </trkpt>
      <trkpt lat="47.58342" lon="-1.28153">
        <ele>66</ele>
        <time>2023-11-09T22:40:58Z</time>
      </trkpt>
      <trkpt lat="47.58371" lon="-1.28231">
        <ele>66</ele>
        <time>2023-11-09T22:42:19Z</time>
      </trkpt>
      <trkpt lat="47.58395" lon="-1.28287">
        <ele>65</ele>
        <time>2023-11-09T22:43:18Z</time>
      </trkpt>
      <trkpt lat="47.58412" lon="-1.28311">
        <ele>65</ele>
        <time>2023-11-09T22:43:50Z</time>
      </trkpt>
      <trkpt lat="47.58451" lon="-1.28335">
        <ele>65</ele>
        <time>2023-11-09T22:44:46Z</time>
      </trkpt>
      <trkpt lat="47.58515" lon="-1.28357">
        <ele>63</ele>
        <time>2023-11-09T22:46:14Z</time>
      </trkpt>
      <trkpt lat="47.58552" lon="-1.28373">
        <ele>62</ele>
        <time>2023-11-09T22:47:05Z</time>
      </trkpt>
      <trkpt lat="47.58575" lon="-1.28373">
        <ele>61</ele>
        <time>2023-11-09T22:47:36Z</time>
      </trkpt>
      <trkpt lat="47.58595" lon="-1.2837">
        <ele>60</ele>
        <time>2023-11-09T22:48:03Z</time>
      </trkpt>
      <trkpt lat="47.58632" lon="-1.28355">
        <ele>59</ele>
        <time>2023-11-09T22:48:54Z</time>
      </trkpt>
      <trkpt lat="47.58665" lon="-1.28329">
        <ele>58</ele>
        <time>2023-11-09T22:49:44Z</time>
      </trkpt>
      <trkpt lat="47.5872" lon="-1.28293">
        <ele>56</ele>
        <time>2023-11-09T22:51:04Z</time>
      </trkpt>
      <trkpt lat="47.5879" lon="-1.28238">
        <ele>55</ele>
        <time>2023-11-09T22:52:50Z</time>
      </trkpt>
      <trkpt lat="47.58821" lon="-1.28204">
        <ele>55</ele>
        <time>2023-11-09T22:53:41Z</time>
      </trkpt>
      <trkpt lat="47.58859" lon="-1.28134">
        <ele>55</ele>
        <time>2023-11-09T22:55:02Z</time>
      </trkpt>
      <trkpt lat="47.58894" lon="-1.28104">
        <ele>55</ele>
        <time>2023-11-09T22:55:56Z</time>
      </trkpt>
      <trkpt lat="47.58933" lon="-1.28077">
        <ele>55</ele>
        <time>2023-11-09T22:56:53Z</time>
      </trkpt>
      <trkpt lat="47.58955" lon="-1.28065">
        <ele>54</ele>
        <time>2023-11-09T22:57:25Z</time>
      </trkpt>
      <trkpt lat="47.58965" lon="-1.28093">
        <ele>54</ele>
        <time>2023-11-09T22:57:53Z</time>
      </trkpt>
      <trkpt lat="47.5896" lon="-1.28153">
        <ele>53</ele>
        <time>2023-11-09T22:58:48Z</time>
      </trkpt>
      <trkpt lat="47.58946" lon="-1.28515">
        <ele>55</ele>
        <time>2023-11-09T23:04:14Z</time>
      </trkpt>
      <trkpt lat="47.58923" lon="-1.28962">
        <ele>62</ele>
        <time>2023-11-09T23:10:57Z</time>
      </trkpt>
      <trkpt lat="47.58909" lon="-1.29312">
        <ele>62</ele>
        <time>2023-11-09T23:16:13Z</time>
      </trkpt>
      <trkpt lat="47.58928" lon="-1.29319">
        <ele>63</ele>
        <time>2023-11-09T23:16:39Z</time>
      </trkpt>
      <trkpt lat="47.5901" lon="-1.29293">
        <ele>65</ele>
        <time>2023-11-09T23:18:31Z</time>
      </trkpt>
      <trkpt lat="47.59028" lon="-1.2929">
        <ele>64</ele>
        <time>2023-11-09T23:18:55Z</time>
      </trkpt>
      <trkpt lat="47.59085" lon="-1.29268">
        <ele>64</ele>
        <time>2023-11-09T23:20:14Z</time>
      </trkpt>
      <trkpt lat="47.59237" lon="-1.2922">
        <ele>63</ele>
        <time>2023-11-09T23:23:41Z</time>
      </trkpt>
      <trkpt lat="47.59413" lon="-1.29161">
        <ele>61</ele>
        <time>2023-11-09T23:27:42Z</time>
      </trkpt>
      <trkpt lat="47.59433" lon="-1.29158">
        <ele>61</ele>
        <time>2023-11-09T23:28:09Z</time>
      </trkpt>
      <trkpt lat="47.59472" lon="-1.29163">
        <ele>61</ele>
        <time>2023-11-09T23:29:01Z</time>
      </trkpt>
      <trkpt lat="47.59482" lon="-1.29188">
        <ele>61</ele>
        <time>2023-11-09T23:29:27Z</time>
      </trkpt>
      <trkpt lat="47.59483" lon="-1.29219">
        <ele>62</ele>
        <time>2023-11-09T23:29:55Z</time>
      </trkpt>
      <trkpt lat="47.5948" lon="-1.29253">
        <ele>62</ele>
        <time>2023-11-09T23:30:26Z</time>
      </trkpt>
      <trkpt lat="47.59434" lon="-1.29611">
        <ele>60</ele>
        <time>2023-11-09T23:35:54Z</time>
      </trkpt>
      <trkpt lat="47.59432" lon="-1.29642">
        <ele>60</ele>
        <time>2023-11-09T23:36:22Z</time>
      </trkpt>
      <trkpt lat="47.59467" lon="-1.29928">
        <ele>61</ele>
        <time>2023-11-09T23:40:44Z</time>
      </trkpt>
      <trkpt lat="47.5947" lon="-1.29986">
        <ele>61</ele>
        <time>2023-11-09T23:41:36Z</time>
      </trkpt>
      <trkpt lat="47.59455" lon="-1.30134">
        <ele>61</ele>
        <time>2023-11-09T23:43:51Z</time>
      </trkpt>
      <trkpt lat="47.5943" lon="-1.30288">
        <ele>60</ele>
        <time>2023-11-09T23:46:13Z</time>
      </trkpt>
      <trkpt lat="47.59401" lon="-1.30496">
        <ele>60</ele>
        <time>2023-11-09T23:49:24Z</time>
      </trkpt>
      <trkpt lat="47.59377" lon="-1.3064">
        <ele>62</ele>
        <time>2023-11-09T23:51:38Z</time>
      </trkpt>
      <trkpt lat="47.5937" lon="-1.30667">
        <ele>62</ele>
        <time>2023-11-09T23:52:04Z</time>
      </trkpt>
      <trkpt lat="47.59296" lon="-1.3081">
        <ele>63</ele>
        <time>2023-11-09T23:54:46Z</time>
      </trkpt>
      <trkpt lat="47.59282" lon="-1.30832">
        <ele>63</ele>
        <time>2023-11-09T23:55:13Z</time>
      </trkpt>
      <trkpt lat="47.59275" lon="-1.3086">
        <ele>63</ele>
        <time>2023-11-09T23:55:40Z</time>
      </trkpt>
      <trkpt lat="47.59275" lon="-1.31094">
        <ele>64</ele>
        <time>2023-11-09T23:59:11Z</time>
      </trkpt>
      <trkpt lat="47.59273" lon="-1.31123">
        <ele>65</ele>
        <time>2023-11-09T23:59:37Z</time>
      </trkpt>
      <trkpt lat="47.59261" lon="-1.31146">
        <ele>65</ele>
        <time>2023-11-10T00:00:03Z</time>
      </trkpt>
      <trkpt lat="47.59168" lon="-1.31172">
        <ele>65</ele>
        <time>2023-11-10T00:02:09Z</time>
      </trkpt>
      <trkpt lat="47.5915" lon="-1.3118">
        <ele>65</ele>
        <time>2023-11-10T00:02:34Z</time>
      </trkpt>
      <trkpt lat="47.5907" lon="-1.31199">
        <ele>65</ele>
        <time>2023-11-10T00:04:23Z</time>
      </trkpt>
      <trkpt lat="47.59056" lon="-1.31219">
        <ele>65</ele>
        <time>2023-11-10T00:04:49Z</time>
      </trkpt>
      <trkpt lat="47.59083" lon="-1.31416">
        <ele>70</ele>
        <time>2023-11-10T00:07:49Z</time>
      </trkpt>
      <trkpt lat="47.59096" lon="-1.31561">
        <ele>69</ele>
        <time>2023-11-10T00:10:01Z</time>
      </trkpt>
      <trkpt lat="47.59091" lon="-1.31619">
        <ele>68</ele>
        <time>2023-11-10T00:10:54Z</time>
      </trkpt>
      <trkpt lat="47.59082" lon="-1.31673">
        <ele>68</ele>
        <time>2023-11-10T00:11:44Z</time>
      </trkpt>
      <trkpt lat="47.59085" lon="-1.31706">
        <ele>68</ele>
        <time>2023-11-10T00:12:14Z</time>
      </trkpt>
      <trkpt lat="47.59099" lon="-1.31724">
        <ele>68</ele>
        <time>2023-11-10T00:12:38Z</time>
      </trkpt>
      <trkpt lat="47.59113" lon="-1.31775">
        <ele>69</ele>
        <time>2023-11-10T00:13:28Z</time>
      </trkpt>
      <trkpt lat="47.59114" lon="-1.31804">
        <ele>69</ele>
        <time>2023-11-10T00:13:54Z</time>
      </trkpt>
      <trkpt lat="47.5909" lon="-1.31894">
        <ele>70</ele>
        <time>2023-11-10T00:15:21Z</time>
      </trkpt>
      <trkpt lat="47.5907" lon="-1.31941">
        <ele>70</ele>
        <time>2023-11-10T00:16:11Z</time>
      </trkpt>
      <trkpt lat="47.59056" lon="-1.3196">
        <ele>70</ele>
        <time>2023-11-10T00:16:37Z</time>
      </trkpt>
      <trkpt lat="47.59038" lon="-1.31978">
        <ele>70</ele>
        <time>2023-11-10T00:17:06Z</time>
      </trkpt>
      <trkpt lat="47.5902" lon="-1.31989">
        <ele>70</ele>
        <time>2023-11-10T00:17:32Z</time>
      </trkpt>
      <trkpt lat="47.58979" lon="-1.32007">
        <ele>71</ele>
        <time>2023-11-10T00:18:29Z</time>
      </trkpt>
      <trkpt lat="47.58942" lon="-1.32012">
        <ele>71</ele>
        <time>2023-11-10T00:19:18Z</time>
      </trkpt>
      <trkpt lat="47.58883" lon="-1.32024">
        <ele>70</ele>
        <time>2023-11-10T00:20:38Z</time>
      </trkpt>
      <trkpt lat="47.58872" lon="-1.3205">
        <ele>70</ele>
        <time>2023-11-10T00:21:05Z</time>
      </trkpt>
      <trkpt lat="47.58895" lon="-1.32287">
        <ele>65</ele>
        <time>2023-11-10T00:24:41Z</time>
      </trkpt>
      <trkpt lat="47.58906" lon="-1.32377">
        <ele>65</ele>
        <time>2023-11-10T00:26:03Z</time>
      </trkpt>
      <trkpt lat="47.5891" lon="-1.32437">
        <ele>65</ele>
        <time>2023-11-10T00:26:57Z</time>
      </trkpt>
      <trkpt lat="47.58923" lon="-1.32518">
        <ele>65</ele>
        <time>2023-11-10T00:28:12Z</time>
      </trkpt>
      <trkpt lat="47.58963" lon="-1.32653">
        <ele>64</ele>
        <time>2023-11-10T00:30:25Z</time>
      </trkpt>
      <trkpt lat="47.58991" lon="-1.32698">
        <ele>64</ele>
        <time>2023-11-10T00:31:20Z</time>
      </trkpt>
      <trkpt lat="47.58999" lon="-1.32766">
        <ele>65</ele>
        <time>2023-11-10T00:32:22Z</time>
      </trkpt>
      <trkpt lat="47.59023" lon="-1.32856">
        <ele>64</ele>
        <time>2023-11-10T00:33:49Z</time>
      </trkpt>
      <trkpt lat="47.59035" lon="-1.32878">
        <ele>64</ele>
        <time>2023-11-10T00:34:15Z</time>
      </trkpt>
      <trkpt lat="47.59056" lon="-1.32968">
        <ele>65</ele>
        <time>2023-11-10T00:35:41Z</time>
      </trkpt>
      <trkpt lat="47.59087" lon="-1.33006">
        <ele>66</ele>
        <time>2023-11-10T00:36:34Z</time>
      </trkpt>
      <trkpt lat="47.59107" lon="-1.33017">
        <ele>66</ele>
        <time>2023-11-10T00:37:03Z</time>
      </trkpt>
      <trkpt lat="47.59141" lon="-1.32999">
        <ele>65</ele>
        <time>2023-11-10T00:37:51Z</time>
      </trkpt>
    </trkseg>
  </trk>
</gpx>